Time;durP1;ratioP1;P1;durP2;ratioP2;P2;SDS_P1;SDS_P2;PMS_P1;PMS_P2;Temp;Humidity;BMP_temperature;BMP_pressure;BME280_temperature;BME280_humidity;BME280_pressure;Samples;Min_cycle;Max_cycle;Signal;HPM_P1;HPM_P2
2023/12/18 00:00:43;;;;;;;9.32;4.05;;;8.30;99.90;;;;;;5050683;28;21040;-69
2023/12/18 00:03:12;;;;;;;20.15;4.63;;;8.30;99.90;;;;;;5011351;28;20143;-70
2023/12/18 00:05:40;;;;;;;14.52;4.50;;;8.30;99.90;;;;;;5087112;28;20440;-70
2023/12/18 00:08:06;;;;;;;25.13;5.55;;;8.30;99.90;;;;;;5087222;28;20450;-69
2023/12/18 00:10:32;;;;;;;;;;;8.30;99.90;;;;;;5084556;28;20453;-69
2023/12/18 00:12:59;;;;;;;17.17;4.57;;;8.30;99.90;;;;;;5042891;28;20190;-69
2023/12/18 00:15:27;;;;;;;13.65;4.97;;;8.30;99.90;;;;;;4961851;28;20040;-69
2023/12/18 00:17:53;;;;;;;21.48;4.75;;;8.30;99.90;;;;;;5066575;28;20133;-70
2023/12/18 00:20:22;;;;;;;12.93;3.65;;;8.40;99.90;;;;;;5011455;28;20406;-68
2023/12/18 00:22:55;;;;;;;13.50;4.78;;;8.40;99.90;;;;;;4968917;28;20347;-68
2023/12/18 00:25:21;;;;;;;12.65;4.07;;;8.40;99.90;;;;;;4964111;28;20040;-69
2023/12/18 00:27:47;;;;;;;;;;;8.40;99.90;;;;;;5085263;28;20085;-68
2023/12/18 00:30:14;;;;;;;14.02;4.22;;;8.40;99.90;;;;;;5095267;28;19916;-69
2023/12/18 00:32:40;;;;;;;10.52;5.10;;;8.40;99.90;;;;;;5088265;28;20043;-69
2023/12/18 00:35:13;;;;;;;12.48;4.47;;;8.40;99.90;;;;;;5073957;28;20333;-68
2023/12/18 00:37:39;;;;;;;14.98;4.18;;;8.40;99.90;;;;;;5073945;28;20040;-68
2023/12/18 00:40:05;;;;;;;12.65;4.60;;;8.40;99.90;;;;;;5080439;28;20066;-68
2023/12/18 00:42:33;;;;;;;14.13;5.00;;;8.40;99.90;;;;;;5081401;28;20386;-68
2023/12/18 00:44:58;;;;;;;12.35;4.18;;;8.40;99.90;;;;;;5079059;28;20048;-68
2023/12/18 00:47:24;;;;;;;13.03;3.77;;;8.40;99.90;;;;;;5079995;28;20042;-68
2023/12/18 00:49:50;;;;;;;13.00;3.72;;;8.50;99.90;;;;;;5083795;28;20788;-68
2023/12/18 00:52:16;;;;;;;12.63;4.23;;;8.50;99.90;;;;;;5081416;28;20120;-68
2023/12/18 00:54:44;;;;;;;12.97;3.73;;;8.50;99.90;;;;;;5080708;28;20368;-68
2023/12/18 00:57:10;;;;;;;15.77;4.32;;;8.50;99.90;;;;;;5083893;28;20035;-68
2023/12/18 00:59:38;;;;;;;18.83;4.28;;;8.50;99.90;;;;;;5072503;28;20039;-69
2023/12/18 01:02:04;;;;;;;13.35;4.03;;;8.50;99.90;;;;;;5077431;28;20087;-68
2023/12/18 01:04:30;;;;;;;15.25;3.60;;;8.50;99.90;;;;;;5065055;28;20584;-68
2023/12/18 01:06:55;;;;;;;15.77;4.03;;;8.50;99.90;;;;;;5081450;28;20040;-68
2023/12/18 01:09:24;;;;;;;12.90;3.23;;;8.50;99.90;;;;;;5082330;28;20080;-68
2023/12/18 01:11:50;;;;;;;14.10;3.42;;;8.50;99.90;;;;;;5076452;28;20182;-68
2023/12/18 01:14:16;;;;;;;12.65;3.85;;;8.50;99.90;;;;;;5085134;28;20071;-68
2023/12/18 01:16:42;;;;;;;14.47;4.07;;;8.50;99.90;;;;;;5082178;28;20457;-68
2023/12/18 01:19:07;;;;;;;9.63;3.80;;;8.50;99.90;;;;;;5077362;28;20043;-68
2023/12/18 01:21:34;;;;;;;9.67;3.00;;;8.50;99.90;;;;;;5078302;28;20047;-69
2023/12/18 01:23:59;;;;;;;15.00;4.45;;;8.50;99.90;;;;;;5075653;28;20459;-68
2023/12/18 01:26:25;;;;;;;11.57;4.27;;;8.60;99.90;;;;;;5081534;28;20123;-68
2023/12/18 01:28:51;;;;;;;14.63;3.70;;;8.60;99.90;;;;;;5074107;28;20100;-68
2023/12/18 01:31:23;;;;;;;9.50;2.97;;;8.60;99.90;;;;;;5083339;28;20155;-68
2023/12/18 01:33:52;;;;;;;15.50;3.67;;;8.60;99.90;;;;;;5072597;28;20043;-68
2023/12/18 01:36:18;;;;;;;21.23;3.22;;;8.60;99.90;;;;;;5078199;28;20115;-68
2023/12/18 01:38:43;;;;;;;9.97;2.77;;;8.60;99.90;;;;;;5078045;28;22627;-68
2023/12/18 01:41:09;;;;;;;12.47;2.77;;;8.60;99.90;;;;;;5084378;28;20036;-68
2023/12/18 01:43:34;;;;;;;7.87;2.77;;;8.60;99.90;;;;;;5076615;28;20039;-68
2023/12/18 01:46:04;;;;;;;10.93;2.30;;;8.60;99.90;;;;;;5083039;28;20039;-68
2023/12/18 01:48:32;;;;;;;14.35;2.53;;;8.60;99.90;;;;;;5086714;28;20132;-68
2023/12/18 01:51:02;;;;;;;10.77;3.15;;;8.70;99.90;;;;;;5079387;28;20173;-68
2023/12/18 01:53:38;;;;;;;9.55;2.42;;;8.70;99.90;;;;;;5077160;28;20032;-68
2023/12/18 01:56:05;;;;;;;5.88;1.90;;;8.80;99.90;;;;;;5064992;28;20039;-68
2023/12/18 01:58:33;;;;;;;7.90;2.53;;;8.80;99.90;;;;;;5084966;28;20036;-68
2023/12/18 02:01:00;;;;;;;11.10;2.20;;;8.80;99.90;;;;;;5084389;28;20569;-68
2023/12/18 02:03:29;;;;;;;6.72;2.20;;;8.80;99.90;;;;;;5080859;28;20044;-68
2023/12/18 02:05:58;;;;;;;5.55;2.58;;;8.90;99.90;;;;;;5084024;28;20404;-68
2023/12/18 02:08:24;;;;;;;12.02;3.00;;;8.80;99.90;;;;;;5087663;28;20101;-68
2023/12/18 02:10:51;;;;;;;12.32;2.67;;;8.80;99.90;;;;;;5080161;28;20453;-68
2023/12/18 02:13:22;;;;;;;11.63;2.30;;;8.90;99.90;;;;;;5082709;28;20036;-68
2023/12/18 02:15:47;;;;;;;12.57;2.40;;;8.90;99.90;;;;;;5082311;28;20032;-67
2023/12/18 02:18:13;;;;;;;8.60;2.60;;;8.90;99.90;;;;;;5083719;28;20498;-67
2023/12/18 02:20:42;;;;;;;20.23;3.10;;;8.90;99.90;;;;;;5082830;28;20146;-68
2023/12/18 02:23:09;;;;;;;9.40;2.45;;;8.90;99.90;;;;;;5080977;28;20062;-73
2023/12/18 02:25:34;;;;;;;13.65;2.25;;;8.90;99.90;;;;;;5076274;28;20086;-70
2023/12/18 02:28:04;;;;;;;10.20;2.57;;;8.90;99.90;;;;;;5078980;28;20036;-67
2023/12/18 02:30:32;;;;;;;12.38;2.33;;;8.80;99.90;;;;;;5079687;28;20563;-67
2023/12/18 02:32:58;;;;;;;8.35;2.50;;;8.90;99.90;;;;;;5082839;28;20048;-67
2023/12/18 02:35:24;;;;;;;9.20;2.20;;;8.90;99.90;;;;;;5081503;28;20471;-67
2023/12/18 02:37:50;;;;;;;;;;;8.90;99.90;;;;;;5084405;28;20454;-67
2023/12/18 02:40:16;;;;;;;13.68;2.90;;;8.90;99.90;;;;;;5074975;28;19924;-68
2023/12/18 02:42:41;;;;;;;7.78;2.58;;;8.90;99.90;;;;;;5081494;28;20520;-68
2023/12/18 02:45:07;;;;;;;16.43;2.87;;;9.00;99.90;;;;;;5083274;28;20143;-67
2023/12/18 02:47:33;;;;;;;7.00;2.22;;;8.90;99.90;;;;;;5094329;27;20067;-67
2023/12/18 02:49:59;;;;;;;10.17;3.37;;;9.00;99.90;;;;;;5084238;28;20079;-68
2023/12/18 02:52:24;;;;;;;10.93;2.83;;;9.00;99.90;;;;;;5094616;27;20031;-67
2023/12/18 02:54:50;;;;;;;9.80;2.28;;;9.00;99.90;;;;;;5086238;28;20036;-67
2023/12/18 02:57:16;;;;;;;13.10;2.67;;;9.00;99.90;;;;;;5079955;28;20044;-67
2023/12/18 02:59:41;;;;;;;5.47;2.27;;;9.00;99.90;;;;;;5083600;28;20324;-67
2023/12/18 03:02:07;;;;;;;19.17;2.57;;;9.00;99.90;;;;;;5081656;28;20040;-67
2023/12/18 03:04:32;;;;;;;12.47;2.63;;;9.00;99.90;;;;;;5085510;28;20040;-67
2023/12/18 03:06:58;;;;;;;15.10;3.10;;;9.00;99.90;;;;;;5079044;28;20097;-67
2023/12/18 03:09:24;;;;;;;12.73;3.00;;;9.00;99.90;;;;;;5085851;28;20074;-67
2023/12/18 03:11:49;;;;;;;11.83;3.07;;;9.00;99.90;;;;;;5084519;28;20075;-67
2023/12/18 03:14:15;;;;;;;18.70;2.87;;;8.90;99.90;;;;;;5088770;28;20044;-68
2023/12/18 03:16:40;;;;;;;9.90;2.90;;;8.90;99.90;;;;;;5076262;28;20044;-67
2023/12/18 03:19:06;;;;;;;11.37;2.63;;;8.90;99.90;;;;;;5089003;28;20148;-67
2023/12/18 03:21:32;;;;;;;11.15;3.00;;;8.90;99.90;;;;;;5088623;28;20467;-67
2023/12/18 03:23:58;;;;;;;9.57;2.70;;;8.80;99.90;;;;;;5080250;28;20052;-67
2023/12/18 03:26:24;;;;;;;10.27;2.40;;;8.90;99.90;;;;;;5078700;28;20288;-67
2023/12/18 03:28:50;;;;;;;10.70;3.27;;;8.80;99.90;;;;;;5079668;28;20052;-68
2023/12/18 03:31:16;;;;;;;13.40;2.72;;;8.80;99.90;;;;;;5083507;28;20345;-67
2023/12/18 03:33:42;;;;;;;16.03;2.90;;;8.80;99.90;;;;;;5083472;28;20285;-67
2023/12/18 03:36:08;;;;;;;9.20;2.35;;;8.80;99.90;;;;;;5084983;28;20088;-69
2023/12/18 03:38:33;;;;;;;10.55;2.88;;;8.80;99.90;;;;;;5065740;28;20071;-68
2023/12/18 03:40:59;;;;;;;8.20;2.70;;;8.80;99.90;;;;;;5081560;28;20071;-68
2023/12/18 03:43:26;;;;;;;6.10;2.50;;;8.80;99.90;;;;;;5080438;28;20154;-68
2023/12/18 03:45:52;;;;;;;14.63;2.72;;;8.90;99.90;;;;;;5068661;28;20538;-68
2023/12/18 03:48:20;;;;;;;8.38;2.50;;;8.80;99.90;;;;;;5080365;28;20035;-68
2023/12/18 03:50:46;;;;;;;15.27;2.75;;;8.90;99.90;;;;;;5078634;28;20040;-69
2023/12/18 03:53:12;;;;;;;12.95;2.90;;;8.90;99.90;;;;;;5086138;28;20549;-68
2023/12/18 03:55:38;;;;;;;10.27;2.53;;;8.90;99.90;;;;;;5086158;28;20048;-68
2023/12/18 03:58:05;;;;;;;11.13;3.65;;;8.90;99.90;;;;;;5083401;28;20112;-69
2023/12/18 04:00:34;;;;;;;;;;;8.90;99.90;;;;;;5079335;28;20090;-68
2023/12/18 04:03:02;;;;;;;9.88;2.25;;;8.90;99.90;;;;;;5082531;28;19998;-68
2023/12/18 04:05:27;;;;;;;10.18;2.70;;;8.90;99.90;;;;;;5062609;28;20041;-68
2023/12/18 04:07:53;;;;;;;17.10;2.50;;;8.90;99.90;;;;;;5081204;28;20060;-68
2023/12/18 04:10:19;;;;;;;11.73;2.80;;;8.90;99.90;;;;;;5080465;28;20043;-68
2023/12/18 04:12:44;;;;;;;12.27;2.57;;;8.90;99.90;;;;;;5081761;28;20093;-68
2023/12/18 04:15:11;;;;;;;10.00;2.03;;;8.90;99.90;;;;;;5081166;28;20044;-68
2023/12/18 04:17:37;;;;;;;12.73;2.38;;;8.90;99.90;;;;;;5086066;28;20078;-68
2023/12/18 04:20:03;;;;;;;13.85;2.75;;;8.90;99.90;;;;;;5080661;28;20106;-69
2023/12/18 04:22:29;;;;;;;;;;;8.90;99.90;;;;;;5078651;28;20063;-68
2023/12/18 04:24:55;;;;;;;14.48;3.38;;;8.90;99.90;;;;;;5081529;28;19916;-68
2023/12/18 04:27:21;;;;;;;12.52;2.58;;;8.90;99.90;;;;;;5079771;28;20051;-68
2023/12/18 04:29:47;;;;;;;8.63;2.67;;;8.90;99.90;;;;;;5078270;28;20043;-68
2023/12/18 04:32:12;;;;;;;8.87;3.17;;;8.90;99.90;;;;;;5078762;28;20089;-68
2023/12/18 04:34:39;;;;;;;7.40;2.40;;;8.90;99.90;;;;;;5081461;28;20355;-69
2023/12/18 04:37:05;;;;;;;11.30;3.25;;;8.90;99.90;;;;;;5080400;28;20043;-68
2023/12/18 04:39:34;;;;;;;12.95;3.30;;;8.90;99.90;;;;;;5082310;28;20043;-69
2023/12/18 04:42:00;;;;;;;12.43;2.72;;;8.90;99.90;;;;;;5081457;28;20074;-68
2023/12/18 04:44:25;;;;;;;9.10;3.03;;;8.90;99.90;;;;;;5080100;28;20070;-68
2023/12/18 04:46:51;;;;;;;12.87;3.03;;;8.90;99.90;;;;;;5081093;28;20488;-68
2023/12/18 04:49:17;;;;;;;7.25;2.45;;;8.90;99.90;;;;;;5083822;28;20042;-68
2023/12/18 04:51:43;;;;;;;18.40;3.47;;;8.90;99.90;;;;;;5081472;28;20377;-68
2023/12/18 04:54:09;;;;;;;9.87;3.53;;;8.90;99.90;;;;;;5080719;28;20039;-69
2023/12/18 04:56:37;;;;;;;10.10;2.92;;;9.00;99.90;;;;;;5081402;28;20036;-69
2023/12/18 04:59:02;;;;;;;9.87;2.97;;;8.90;99.90;;;;;;5081037;28;20384;-69
2023/12/18 05:01:29;;;;;;;12.23;3.73;;;9.00;99.90;;;;;;5074438;28;20051;-68
2023/12/18 05:03:54;;;;;;;10.65;3.67;;;8.90;99.90;;;;;;5082205;28;20040;-69
2023/12/18 05:06:26;;;;;;;9.60;3.23;;;8.90;99.90;;;;;;5082696;28;20389;-68
2023/12/18 05:08:52;;;;;;;11.63;4.38;;;8.90;99.90;;;;;;5077031;28;20679;-68
2023/12/18 05:11:22;;;;;;;11.57;4.22;;;8.80;99.90;;;;;;5076978;28;20101;-68
2023/12/18 05:13:54;;;;;;;11.90;4.93;;;8.80;99.90;;;;;;5086009;28;20511;-69
2023/12/18 05:16:20;;;;;;;14.82;4.45;;;8.80;99.90;;;;;;5070625;28;20563;-68
2023/12/18 05:18:45;;;;;;;11.07;4.90;;;8.80;99.90;;;;;;5089116;28;20114;-68
2023/12/18 05:21:11;;;;;;;12.70;5.13;;;8.80;99.90;;;;;;5077701;28;20105;-68
2023/12/18 05:23:38;;;;;;;17.97;4.90;;;8.80;99.90;;;;;;5079874;28;20040;-68
2023/12/18 05:26:03;;;;;;;16.90;6.28;;;8.80;99.90;;;;;;5077205;28;20044;-68
2023/12/18 05:28:29;;;;;;;10.95;4.95;;;8.70;99.90;;;;;;5070556;28;20108;-68
2023/12/18 05:30:55;;;;;;;16.93;4.93;;;8.70;99.90;;;;;;5080006;28;20112;-68
2023/12/18 05:33:21;;;;;;;11.35;5.28;;;8.70;99.90;;;;;;5095897;27;20651;-68
2023/12/18 05:35:46;;;;;;;12.47;5.77;;;8.70;99.90;;;;;;5086569;28;20053;-68
2023/12/18 05:38:12;;;;;;;18.57;6.10;;;8.70;99.90;;;;;;5084189;28;20276;-68
2023/12/18 05:40:38;;;;;;;13.70;5.05;;;8.60;99.90;;;;;;5080881;28;20209;-68
2023/12/18 05:43:07;;;;;;;16.30;5.37;;;8.60;99.90;;;;;;5077612;28;20173;-68
2023/12/18 05:45:32;;;;;;;11.02;5.25;;;8.60;99.90;;;;;;5075583;28;20032;-68
2023/12/18 05:47:59;;;;;;;12.07;5.50;;;8.60;99.90;;;;;;5077143;28;20561;-68
2023/12/18 05:50:25;;;;;;;14.50;6.25;;;8.60;99.90;;;;;;5082102;28;20484;-68
2023/12/18 05:52:50;;;;;;;16.73;5.55;;;8.60;99.90;;;;;;5079014;28;20032;-69
2023/12/18 05:55:16;;;;;;;11.47;6.33;;;8.60;99.90;;;;;;5081158;28;20039;-68
2023/12/18 05:57:42;;;;;;;16.05;6.38;;;8.60;99.90;;;;;;5078206;28;20456;-68
2023/12/18 06:00:09;;;;;;;15.17;6.30;;;8.60;99.90;;;;;;5080054;28;20036;-68
2023/12/18 06:02:37;;;;;;;15.38;6.57;;;8.60;99.90;;;;;;5077922;28;20307;-68
2023/12/18 06:05:03;;;;;;;18.70;5.65;;;8.60;99.90;;;;;;5081882;28;20500;-68
2023/12/18 06:07:29;;;;;;;15.88;6.35;;;8.60;99.90;;;;;;5081927;28;20139;-68
2023/12/18 06:09:55;;;;;;;16.95;5.63;;;8.60;99.90;;;;;;5084487;28;20044;-68
2023/12/18 06:12:20;;;;;;;19.10;6.28;;;8.60;99.90;;;;;;5079769;28;20040;-68
2023/12/18 06:14:47;;;;;;;13.23;6.03;;;8.60;99.90;;;;;;5081241;28;20058;-68
2023/12/18 06:17:12;;;;;;;21.45;6.35;;;8.60;99.90;;;;;;5075311;28;20445;-69
2023/12/18 06:19:38;;;;;;;16.23;6.13;;;8.60;99.90;;;;;;5075852;28;20066;-68
2023/12/18 06:22:04;;;;;;;11.07;5.97;;;8.60;99.90;;;;;;5074477;28;20133;-68
2023/12/18 06:24:30;;;;;;;16.60;5.67;;;8.60;99.90;;;;;;5076752;28;20082;-68
2023/12/18 06:26:59;;;;;;;20.55;6.38;;;8.50;99.90;;;;;;5077258;28;20492;-68
2023/12/18 06:29:27;;;;;;;12.00;5.95;;;8.60;99.90;;;;;;5060508;28;20145;-69
2023/12/18 06:31:53;;;;;;;16.65;5.68;;;8.60;99.90;;;;;;5060210;28;20442;-68
2023/12/18 06:34:19;;;;;;;19.67;5.85;;;8.60;99.90;;;;;;5077189;28;20044;-68
2023/12/18 06:36:45;;;;;;;13.07;4.40;;;8.60;99.90;;;;;;5084401;28;20036;-68
2023/12/18 06:39:14;;;;;;;18.33;5.43;;;8.60;99.90;;;;;;5083399;28;20071;-68
2023/12/18 06:41:39;;;;;;;17.52;5.80;;;8.60;99.90;;;;;;5082839;28;20273;-68
2023/12/18 06:44:05;;;;;;;13.60;6.10;;;8.70;99.90;;;;;;5074256;28;20123;-68
2023/12/18 06:46:33;;;;;;;15.93;6.47;;;8.60;99.90;;;;;;5078676;28;20029;-69
2023/12/18 06:48:59;;;;;;;16.90;5.57;;;8.60;99.90;;;;;;5083556;28;20052;-70
2023/12/18 06:51:28;;;;;;;16.00;7.32;;;8.60;99.90;;;;;;5083083;28;20098;-76
2023/12/18 06:53:53;;;;;;;16.33;6.03;;;8.60;99.90;;;;;;5079344;28;20433;-70
2023/12/18 06:56:19;;;;;;;22.97;7.53;;;8.60;99.90;;;;;;5085803;28;20119;-69
2023/12/18 06:58:45;;;;;;;15.47;7.37;;;8.60;99.90;;;;;;5083068;28;20028;-70
2023/12/18 07:01:13;;;;;;;18.80;6.93;;;8.50;99.90;;;;;;5081780;28;20623;-70
2023/12/18 07:03:39;;;;;;;19.00;6.93;;;8.60;99.90;;;;;;5075048;28;20705;-71
2023/12/18 07:06:07;;;;;;;20.20;7.43;;;8.50;99.90;;;;;;5083960;28;20039;-68
2023/12/18 07:08:33;;;;;;;16.67;6.72;;;8.50;99.90;;;;;;5078870;28;20036;-70
2023/12/18 07:10:59;;;;;;;17.90;7.30;;;8.50;99.90;;;;;;5072960;28;20448;-68
2023/12/18 07:13:25;;;;;;;14.77;6.57;;;8.50;99.90;;;;;;5081877;28;20039;-68
2023/12/18 07:15:53;;;;;;;23.23;8.43;;;8.50;99.90;;;;;;5084020;28;20303;-68
2023/12/18 07:18:21;;;;;;;22.80;8.02;;;8.50;99.90;;;;;;5076890;28;20051;-68
2023/12/18 07:20:47;;;;;;;19.63;7.68;;;8.50;99.90;;;;;;5079886;28;20110;-68
2023/12/18 07:23:13;;;;;;;21.70;8.27;;;8.50;99.90;;;;;;5087680;28;20093;-68
2023/12/18 07:25:38;;;;;;;17.80;7.90;;;8.50;99.90;;;;;;5077259;28;20467;-68
2023/12/18 07:28:09;;;;;;;19.70;8.20;;;8.50;99.90;;;;;;5083366;28;20131;-69
2023/12/18 07:30:39;;;;;;;15.40;6.53;;;8.50;99.90;;;;;;5058096;28;20439;-69
2023/12/18 07:33:05;;;;;;;20.75;6.90;;;8.50;99.90;;;;;;5078048;28;20040;-68
2023/12/18 07:35:31;;;;;;;18.27;8.82;;;8.50;99.90;;;;;;5083960;28;20043;-68
2023/12/18 07:37:56;;;;;;;15.48;6.60;;;8.50;99.90;;;;;;5082730;28;20044;-68
2023/12/18 07:40:22;;;;;;;18.23;7.70;;;8.50;99.90;;;;;;5085595;28;20547;-68
2023/12/18 07:42:48;;;;;;;16.50;7.90;;;8.50;99.90;;;;;;5075216;28;20054;-68
2023/12/18 07:45:13;;;;;;;19.23;7.50;;;8.50;99.90;;;;;;5086422;28;20040;-68
2023/12/18 07:47:41;;;;;;;15.13;7.20;;;8.50;99.90;;;;;;5086574;28;20028;-68
2023/12/18 07:50:07;;;;;;;19.30;7.78;;;8.50;99.90;;;;;;5084217;28;20040;-68
2023/12/18 07:52:33;;;;;;;20.70;7.53;;;8.50;99.90;;;;;;5073754;28;20070;-68
2023/12/18 07:54:59;;;;;;;16.75;7.32;;;8.50;99.90;;;;;;5080344;28;20040;-68
2023/12/18 07:57:25;;;;;;;19.60;7.93;;;8.50;99.90;;;;;;5082011;28;20043;-68
2023/12/18 07:59:51;;;;;;;21.30;8.30;;;8.50;99.90;;;;;;5082833;28;21956;-68
2023/12/18 08:02:16;;;;;;;15.23;7.15;;;8.50;99.90;;;;;;5084882;28;20036;-68
2023/12/18 08:04:42;;;;;;;24.23;7.70;;;8.50;99.90;;;;;;5085678;28;20177;-68
2023/12/18 08:07:07;;;;;;;19.67;8.33;;;8.50;99.90;;;;;;5088775;28;20197;-68
2023/12/18 08:09:33;;;;;;;19.80;7.67;;;8.50;99.90;;;;;;5083820;28;20100;-68
2023/12/18 08:11:59;;;;;;;16.90;8.07;;;8.50;99.90;;;;;;5078645;28;20600;-68
2023/12/18 08:14:25;;;;;;;22.80;8.37;;;8.50;99.90;;;;;;5082557;28;20040;-68
2023/12/18 08:16:50;;;;;;;15.85;7.95;;;8.50;99.90;;;;;;5083026;28;20064;-68
2023/12/18 08:19:16;;;;;;;23.37;8.43;;;8.50;99.90;;;;;;5080813;28;20028;-68
2023/12/18 08:21:43;;;;;;;17.85;8.73;;;8.50;99.90;;;;;;5081259;28;20308;-68
2023/12/18 08:24:08;;;;;;;;;;;8.50;99.90;;;;;;5081096;28;20048;-68
2023/12/18 08:26:34;;;;;;;23.25;8.35;;;8.50;99.90;;;;;;5081397;28;19969;-68
2023/12/18 08:28:59;;;;;;;27.33;8.67;;;8.50;99.90;;;;;;5083377;28;20110;-68
2023/12/18 08:31:26;;;;;;;29.80;9.53;;;8.50;99.90;;;;;;5085179;28;20096;-68
2023/12/18 08:33:52;;;;;;;23.52;8.75;;;8.50;99.90;;;;;;5068744;28;20032;-68
2023/12/18 08:36:18;;;;;;;15.18;8.27;;;8.50;99.90;;;;;;5084425;28;20619;-68
2023/12/18 08:38:44;;;;;;;28.13;8.87;;;8.50;99.90;;;;;;5072086;28;20363;-68
2023/12/18 08:41:09;;;;;;;21.30;8.70;;;8.50;99.90;;;;;;5083296;28;20044;-68
2023/12/18 08:43:35;;;;;;;22.37;8.10;;;8.50;99.90;;;;;;5084488;28;20492;-68
2023/12/18 08:46:00;;;;;;;22.57;8.57;;;8.60;99.90;;;;;;5074529;28;20047;-68
2023/12/18 08:48:26;;;;;;;23.50;9.50;;;8.60;99.90;;;;;;5082024;28;20093;-68
2023/12/18 08:50:51;;;;;;;23.10;9.17;;;8.50;99.90;;;;;;5082924;28;20039;-68
2023/12/18 08:53:17;;;;;;;23.93;7.93;;;8.60;99.90;;;;;;5088121;28;20107;-68
2023/12/18 08:55:43;;;;;;;21.00;8.37;;;8.50;99.90;;;;;;5084809;28;20430;-68
2023/12/18 08:58:09;;;;;;;20.80;8.40;;;8.60;99.90;;;;;;5086797;28;20419;-68
2023/12/18 09:00:35;;;;;;;21.05;8.52;;;8.60;99.90;;;;;;5084429;28;20077;-68
2023/12/18 09:03:01;;;;;;;21.15;8.75;;;8.60;99.90;;;;;;5079394;28;20117;-68
2023/12/18 09:05:28;;;;;;;21.02;8.00;;;8.60;99.90;;;;;;5076512;28;20098;-68
2023/12/18 09:07:54;;;;;;;20.55;7.93;;;8.60;99.90;;;;;;5077785;28;20134;-68
2023/12/18 09:10:22;;;;;;;18.17;9.83;;;8.60;99.90;;;;;;5083108;28;20127;-68
2023/12/18 09:12:53;;;;;;;19.08;8.57;;;8.60;99.90;;;;;;5075281;28;20512;-68
2023/12/18 09:15:19;;;;;;;19.05;8.25;;;8.70;99.90;;;;;;5081390;28;20036;-68
2023/12/18 09:17:45;;;;;;;23.17;9.13;;;8.70;99.90;;;;;;5083599;28;20032;-68
2023/12/18 09:20:11;;;;;;;17.50;9.73;;;8.70;99.90;;;;;;5074576;28;20043;-68
2023/12/18 09:22:37;;;;;;;17.23;8.68;;;8.70;99.90;;;;;;5063591;28;20642;-68
2023/12/18 09:25:03;;;;;;;16.13;8.25;;;8.70;99.90;;;;;;5086227;28;20097;-68
2023/12/18 09:27:29;;;;;;;18.58;7.80;;;8.70;99.90;;;;;;5070825;28;20416;-68
2023/12/18 09:29:55;;;;;;;21.95;8.88;;;8.80;99.90;;;;;;5077590;28;20040;-68
2023/12/18 09:32:21;;;;;;;20.97;9.13;;;8.70;99.90;;;;;;5082834;28;20617;-68
2023/12/18 09:34:47;;;;;;;22.80;8.48;;;8.80;99.90;;;;;;5071201;28;20040;-68
2023/12/18 09:37:13;;;;;;;18.75;8.15;;;8.80;99.90;;;;;;5077544;28;20113;-68
2023/12/18 09:39:41;;;;;;;16.73;8.70;;;8.80;99.90;;;;;;5078881;28;20083;-68
2023/12/18 09:42:09;;;;;;;20.95;9.32;;;8.80;99.90;;;;;;5079080;28;20061;-68
2023/12/18 09:44:36;;;;;;;18.40;9.13;;;8.80;99.90;;;;;;5076725;28;20067;-68
2023/12/18 09:47:03;;;;;;;26.77;8.65;;;8.90;99.90;;;;;;5077788;28;20047;-68
2023/12/18 09:49:29;;;;;;;17.95;8.40;;;8.90;99.90;;;;;;5059729;28;20044;-68
2023/12/18 09:52:00;;;;;;;20.10;9.13;;;8.90;99.90;;;;;;5080364;28;20458;-68
2023/12/18 09:54:28;;;;;;;20.20;9.82;;;8.90;99.90;;;;;;5078107;28;20108;-68
2023/12/18 09:56:56;;;;;;;26.42;9.50;;;8.90;99.90;;;;;;5083210;28;20439;-68
2023/12/18 09:59:22;;;;;;;21.15;8.60;;;9.00;99.90;;;;;;5076995;28;20040;-68
2023/12/18 10:01:48;;;;;;;22.80;8.57;;;9.00;99.90;;;;;;5069507;28;20045;-68
2023/12/18 10:04:14;;;;;;;19.05;8.73;;;9.00;99.90;;;;;;5078710;28;20062;-68
2023/12/18 10:06:40;;;;;;;19.47;9.47;;;9.00;99.90;;;;;;5060306;28;20044;-68
2023/12/18 10:09:13;;;;;;;24.42;8.63;;;9.00;99.90;;;;;;5082564;28;20115;-68
2023/12/18 10:11:41;;;;;;;21.55;9.80;;;9.00;99.90;;;;;;5079357;28;20498;-74
2023/12/18 10:14:07;;;;;;;22.10;9.38;;;9.00;99.90;;;;;;5078705;28;20027;-69
2023/12/18 10:16:32;;;;;;;22.97;10.20;;;9.00;99.90;;;;;;5085896;28;20337;-73
2023/12/18 10:18:58;;;;;;;19.43;9.23;;;9.00;99.90;;;;;;5067925;28;20040;-69
2023/12/18 10:21:25;;;;;;;27.73;10.55;;;9.00;99.90;;;;;;5079203;28;20408;-68
2023/12/18 10:23:53;;;;;;;18.52;9.48;;;9.00;99.90;;;;;;5076757;28;20416;-68
2023/12/18 10:26:20;;;;;;;16.38;9.23;;;9.00;99.90;;;;;;5064511;28;20134;-68
2023/12/18 10:28:48;;;;;;;20.52;9.43;;;9.00;99.90;;;;;;5086651;28;20051;-68
2023/12/18 10:31:14;;;;;;;20.60;9.27;;;9.00;99.90;;;;;;5078985;28;20539;-68
2023/12/18 10:33:40;;;;;;;24.27;9.23;;;9.00;99.90;;;;;;5077568;28;20036;-68
2023/12/18 10:36:08;;;;;;;18.85;10.02;;;9.00;99.90;;;;;;5087745;28;20031;-68
2023/12/18 10:38:36;;;;;;;24.73;9.40;;;9.10;99.90;;;;;;5074288;28;20044;-68
2023/12/18 10:41:04;;;;;;;22.45;10.85;;;9.00;99.90;;;;;;5082525;28;20058;-68
2023/12/18 10:43:33;;;;;;;20.63;9.27;;;9.00;99.90;;;;;;5080311;28;20145;-68
2023/12/18 10:46:02;;;;;;;19.63;10.63;;;9.00;99.90;;;;;;5067720;28;20036;-68
2023/12/18 10:48:28;;;;;;;16.38;8.95;;;9.00;99.90;;;;;;5075799;28;20089;-68
2023/12/18 10:50:56;;;;;;;19.42;9.18;;;9.00;99.90;;;;;;5081234;28;20044;-68
2023/12/18 10:53:23;;;;;;;24.90;10.75;;;9.00;99.90;;;;;;5078959;28;20435;-68
2023/12/18 10:55:50;;;;;;;28.23;9.60;;;9.00;99.90;;;;;;5082272;28;20040;-68
2023/12/18 10:58:20;;;;;;;21.95;9.40;;;9.00;99.90;;;;;;5087547;28;20128;-68
2023/12/18 11:00:46;;;;;;;26.73;9.73;;;9.00;99.90;;;;;;5076312;28;20036;-68
2023/12/18 11:03:15;;;;;;;18.65;9.30;;;9.00;99.90;;;;;;5084906;28;20036;-68
2023/12/18 11:05:41;;;;;;;22.75;10.23;;;9.00;99.90;;;;;;5087518;28;20488;-67
2023/12/18 11:08:07;;;;;;;;;;;9.00;99.90;;;;;;5073240;28;20046;-68
2023/12/18 11:10:33;;;;;;;21.52;9.80;;;9.00;99.90;;;;;;5083542;28;20331;-68
2023/12/18 11:13:27;;;;;;;24.27;9.85;;;9.10;99.90;;;;;;5087350;28;20044;-67
2023/12/18 11:16:25;;;;;;;18.95;9.18;;;9.10;99.90;;;;;;5073413;28;20637;-68
2023/12/18 11:19:09;;;;;;;18.27;8.65;;;9.10;99.90;;;;;;5076983;28;20036;-70
2023/12/18 11:21:35;;;;;;;25.77;9.38;;;9.10;99.90;;;;;;5077708;28;20121;-68
2023/12/18 11:24:06;;;;;;;20.48;9.55;;;9.10;99.90;;;;;;5084529;28;20441;-70
2023/12/18 11:26:36;;;;;;;21.63;8.43;;;9.10;99.90;;;;;;5080283;28;20507;-70
2023/12/18 11:29:39;;;;;;;21.48;10.05;;;9.10;99.90;;;;;;5076280;28;20101;-69
2023/12/18 11:32:05;;;;;;;19.00;9.40;;;9.10;99.90;;;;;;5074008;28;20660;-69
2023/12/18 11:34:31;;;;;;;24.25;10.45;;;9.10;99.90;;;;;;5075662;28;20123;-70
2023/12/18 11:36:58;;;;;;;22.35;10.23;;;9.20;99.90;;;;;;5077240;28;20104;-69
2023/12/18 11:39:46;;;;;;;17.63;9.48;;;9.20;99.90;;;;;;5075719;28;20036;-70
2023/12/18 11:42:12;;;;;;;25.77;10.57;;;9.20;99.90;;;;;;5072922;28;20040;-69
2023/12/18 11:44:38;;;;;;;21.50;10.07;;;9.20;99.90;;;;;;5072637;28;20499;-69
2023/12/18 11:47:05;;;;;;;24.83;11.38;;;9.20;99.90;;;;;;5072867;28;20040;-69
2023/12/18 11:49:31;;;;;;;24.75;9.95;;;9.20;99.90;;;;;;5063142;28;20047;-69
2023/12/18 11:52:17;;;;;;;15.60;9.03;;;9.10;99.90;;;;;;5077105;28;20088;-70
2023/12/18 11:54:42;;;;;;;19.95;9.35;;;9.20;99.90;;;;;;5077935;28;20092;-69
2023/12/18 11:57:15;;;;;;;21.57;9.47;;;9.20;99.90;;;;;;5077129;28;20048;-69
2023/12/18 11:59:42;;;;;;;21.38;9.27;;;9.20;99.90;;;;;;5080903;28;20320;-69
2023/12/18 12:02:10;;;;;;;21.38;9.80;;;9.20;99.90;;;;;;5078479;28;20052;-69
2023/12/18 12:04:37;;;;;;;19.10;9.63;;;9.20;99.90;;;;;;5079534;28;20079;-69
2023/12/18 12:07:02;;;;;;;22.05;9.88;;;9.20;99.90;;;;;;5081767;28;20052;-69
2023/12/18 12:09:28;;;;;;;20.05;9.40;;;9.20;99.90;;;;;;5079694;28;20079;-69
2023/12/18 12:11:54;;;;;;;24.30;10.07;;;9.20;99.90;;;;;;5069748;28;20145;-69
2023/12/18 12:14:19;;;;;;;18.60;9.50;;;9.20;99.90;;;;;;5061310;28;20055;-69
2023/12/18 12:16:45;;;;;;;30.70;10.37;;;9.20;99.90;;;;;;5079218;28;20028;-69
2023/12/18 12:19:11;;;;;;;19.90;10.37;;;9.20;99.90;;;;;;5077135;28;20040;-69
2023/12/18 12:21:37;;;;;;;19.43;9.57;;;9.30;99.90;;;;;;5070893;28;20054;-69
2023/12/18 12:24:03;;;;;;;17.45;9.68;;;9.20;99.90;;;;;;5067720;28;20396;-69
2023/12/18 12:26:29;;;;;;;27.67;11.18;;;9.20;99.90;;;;;;5061117;28;20051;-69
2023/12/18 12:28:55;;;;;;;19.88;9.43;;;9.20;99.90;;;;;;5077405;28;20100;-69
2023/12/18 12:31:21;;;;;;;29.50;11.83;;;9.20;99.90;;;;;;5077748;28;20039;-69
2023/12/18 12:33:48;;;;;;;21.03;9.00;;;9.20;99.90;;;;;;5073574;28;20516;-69
2023/12/18 12:36:24;;;;;;;21.23;9.88;;;9.20;99.90;;;;;;5070733;28;20182;-69
2023/12/18 12:38:53;;;;;;;20.17;10.23;;;9.30;99.90;;;;;;5070966;28;20051;-69
2023/12/18 12:41:19;;;;;;;18.15;9.52;;;9.30;99.90;;;;;;5076930;28;20089;-69
2023/12/18 12:43:45;;;;;;;24.10;11.07;;;9.20;99.90;;;;;;5073965;28;20085;-69
2023/12/18 12:46:11;;;;;;;19.67;10.80;;;9.20;99.90;;;;;;5073688;28;20053;-69
2023/12/18 12:48:36;;;;;;;35.73;10.20;;;9.20;99.90;;;;;;5080556;28;20123;-69